createdAt,value
2018-12-25T00:00:09.094Z,1029.96
2018-12-25T00:01:09.039Z,1029.92
2018-12-25T00:02:08.970Z,1029.92
2018-12-25T00:03:08.944Z,1029.87
2018-12-25T00:04:08.896Z,1029.85
2018-12-25T00:05:08.843Z,1029.86
2018-12-25T00:06:08.780Z,1029.84
2018-12-25T00:07:08.735Z,1029.84
2018-12-25T00:08:08.732Z,1029.83
2018-12-25T00:09:08.712Z,1029.87
2018-12-25T00:10:08.642Z,1029.92
2018-12-25T00:11:08.578Z,1029.93
2018-12-25T00:12:08.546Z,1029.94
2018-12-25T00:13:08.497Z,1029.97
2018-12-25T00:14:08.453Z,1029.98
2018-12-25T00:15:08.408Z,1029.97
2018-12-25T00:16:08.367Z,1030.01
2018-12-25T00:17:08.362Z,1030.03
2018-12-25T00:18:08.249Z,1030.10
2018-12-25T00:19:08.186Z,1030.08
2018-12-25T00:20:08.187Z,1030.14
2018-12-25T00:21:08.115Z,1030.11
2018-12-25T00:22:08.075Z,1030.09
2018-12-25T00:23:08.005Z,1030.06
2018-12-25T00:24:07.958Z,1030.06
2018-12-25T00:25:07.939Z,1030.07
2018-12-25T00:26:07.860Z,1030.03
2018-12-25T00:27:07.824Z,1030.07
2018-12-25T00:28:07.781Z,1030.06
2018-12-25T00:29:07.740Z,1030.04
2018-12-25T00:30:07.687Z,1030.01
2018-12-25T00:31:07.660Z,1029.99
2018-12-25T00:32:07.597Z,1029.95
2018-12-25T00:33:07.551Z,1029.87
2018-12-25T00:34:07.509Z,1029.82
2018-12-25T00:35:07.469Z,1029.80
2018-12-25T00:36:07.436Z,1029.82
2018-12-25T00:37:07.391Z,1029.83
2018-12-25T00:38:07.353Z,1029.82
2018-12-25T00:39:07.279Z,1029.79
2018-12-25T00:40:07.244Z,1029.77
2018-12-25T00:41:07.189Z,1029.70
2018-12-25T00:42:07.147Z,1029.70
2018-12-25T00:43:07.122Z,1029.74
2018-12-25T00:44:07.047Z,1029.76
2018-12-25T00:45:07.018Z,1029.81
2018-12-25T00:46:06.966Z,1029.85
2018-12-25T00:47:06.953Z,1029.85
2018-12-25T00:48:06.875Z,1029.87
2018-12-25T00:49:14.544Z,1029.84
2018-12-25T00:50:06.777Z,1029.81
2018-12-25T00:51:06.782Z,1029.83
2018-12-25T00:52:06.722Z,1029.85
2018-12-25T00:53:06.644Z,1029.88
2018-12-25T00:54:06.600Z,1029.85
2018-12-25T00:55:06.642Z,1029.81
2018-12-25T00:56:06.505Z,1029.83
2018-12-25T00:57:06.463Z,1029.81
2018-12-25T00:58:06.435Z,1029.80
2018-12-25T00:59:06.370Z,1029.83
2018-12-25T01:00:06.330Z,1029.77
2018-12-25T01:01:06.283Z,1029.78
2018-12-25T01:02:06.258Z,1029.82
2018-12-25T01:03:06.196Z,1029.81
2018-12-25T01:04:06.151Z,1029.85
2018-12-25T01:05:06.106Z,1029.87
2018-12-25T01:06:06.066Z,1029.86
2018-12-25T01:07:06.040Z,1029.87
2018-12-25T01:08:06.015Z,1029.85
2018-12-25T01:09:05.932Z,1029.86
2018-12-25T01:10:05.887Z,1029.84
2018-12-25T01:11:05.868Z,1029.88
2018-12-25T01:12:05.815Z,1029.90
2018-12-25T01:13:05.776Z,1029.90
2018-12-25T01:14:05.722Z,1029.89
2018-12-25T01:15:05.668Z,1029.94
2018-12-25T01:16:05.616Z,1029.88
2018-12-25T01:17:05.581Z,1029.90
2018-12-25T01:18:05.542Z,1029.95
2018-12-25T01:19:05.567Z,1029.96
2018-12-25T01:20:05.464Z,1029.98
2018-12-25T01:21:05.429Z,1029.98
2018-12-25T01:22:05.360Z,1029.96
2018-12-25T01:23:05.372Z,1030.00
2018-12-25T01:24:05.273Z,1030.01
2018-12-25T01:25:05.354Z,1030.02
2018-12-25T01:26:05.158Z,1030.02
2018-12-25T01:27:05.125Z,1029.98
2018-12-25T01:28:14.224Z,1029.96
2018-12-25T01:29:13.779Z,1029.96
2018-12-25T01:30:04.967Z,1029.94
2018-12-25T01:31:04.914Z,1029.95
2018-12-25T01:32:04.879Z,1030.00
2018-12-25T01:33:04.835Z,1030.00
2018-12-25T01:34:04.811Z,1030.00
2018-12-25T01:35:04.745Z,1030.05
2018-12-25T01:36:04.685Z,1030.05
2018-12-25T01:37:04.639Z,1030.04
2018-12-25T01:38:04.593Z,1030.07
2018-12-25T01:39:04.572Z,1030.11
2018-12-25T01:40:04.542Z,1030.10
2018-12-25T01:41:04.469Z,1030.11
2018-12-25T01:42:04.426Z,1030.10
2018-12-25T01:43:04.378Z,1030.09
2018-12-25T01:44:04.355Z,1030.07
2018-12-25T01:45:04.282Z,1030.09
2018-12-25T01:46:04.240Z,1030.08
2018-12-25T01:47:04.197Z,1030.09
2018-12-25T01:48:04.143Z,1030.17
2018-12-25T01:49:04.100Z,1030.15
2018-12-25T01:50:04.075Z,1030.14
2018-12-25T01:51:04.009Z,1030.14
2018-12-25T01:52:03.969Z,1030.09
2018-12-25T01:53:03.925Z,1030.10
2018-12-25T01:54:03.907Z,1030.09
2018-12-25T01:55:03.835Z,1030.10
2018-12-25T01:56:03.778Z,1030.07
2018-12-25T01:57:03.735Z,1030.11
2018-12-25T01:58:03.686Z,1030.17
2018-12-25T01:59:03.640Z,1030.16
2018-12-25T02:00:03.630Z,1030.15
2018-12-25T02:01:03.583Z,1030.14
2018-12-25T02:02:03.510Z,1030.13
2018-12-25T02:03:03.465Z,1030.13
2018-12-25T02:04:03.432Z,1030.10
2018-12-25T02:05:03.375Z,1030.13
2018-12-25T02:06:03.476Z,1030.14
2018-12-25T02:07:03.332Z,1030.13
2018-12-25T02:08:03.359Z,1030.16
2018-12-25T02:09:12.281Z,1030.21
2018-12-25T02:10:03.391Z,1030.21
2018-12-25T02:11:03.320Z,1030.27
2018-12-25T02:12:03.316Z,1030.21
2018-12-25T02:13:03.026Z,1030.20
2018-12-25T02:14:02.963Z,1030.22
2018-12-25T02:15:02.915Z,1030.23
2018-12-25T02:16:02.906Z,1030.20
2018-12-25T02:17:02.846Z,1030.22
2018-12-25T02:18:02.781Z,1030.23
2018-12-25T02:19:02.734Z,1030.16
2018-12-25T02:20:02.694Z,1030.18
2018-12-25T02:21:02.644Z,1030.21
2018-12-25T02:22:02.635Z,1030.21
2018-12-25T02:23:02.562Z,1030.24
2018-12-25T02:24:02.546Z,1030.22
2018-12-25T02:25:02.467Z,1030.25
2018-12-25T02:26:02.416Z,1030.23
2018-12-25T02:27:02.403Z,1030.22
2018-12-25T02:28:02.330Z,1030.21
2018-12-25T02:29:02.287Z,1030.23
2018-12-25T02:30:02.250Z,1030.21
2018-12-25T02:31:02.199Z,1030.22
2018-12-25T02:32:02.180Z,1030.17
2018-12-25T02:33:02.101Z,1030.15
2018-12-25T02:34:02.070Z,1030.16
2018-12-25T02:35:02.041Z,1030.14
2018-12-25T02:36:01.982Z,1030.11
2018-12-25T02:37:01.945Z,1030.14
2018-12-25T02:38:01.908Z,1030.12
2018-12-25T02:39:01.830Z,1030.13
2018-12-25T02:40:01.790Z,1030.17
2018-12-25T02:41:01.740Z,1030.24
2018-12-25T02:42:01.703Z,1030.22
2018-12-25T02:43:01.659Z,1030.23
2018-12-25T02:44:01.639Z,1030.27
2018-12-25T02:45:01.572Z,1030.28
2018-12-25T02:46:01.524Z,1030.28
2018-12-25T02:47:01.492Z,1030.19
2018-12-25T02:48:01.475Z,1030.20
2018-12-25T02:49:01.423Z,1030.20
2018-12-25T02:50:01.368Z,1030.14
2018-12-25T02:51:01.338Z,1030.21
2018-12-25T02:52:01.251Z,1030.20
2018-12-25T02:53:01.251Z,1030.19
2018-12-25T02:54:01.201Z,1030.22
2018-12-25T02:55:01.133Z,1030.26
2018-12-25T02:56:01.092Z,1030.26
2018-12-25T02:57:01.175Z,1030.31
2018-12-25T02:58:01.023Z,1030.27
2018-12-25T02:59:00.970Z,1030.33
2018-12-25T03:00:00.906Z,1030.31
2018-12-25T03:01:00.860Z,1030.31
2018-12-25T03:02:00.830Z,1030.29
2018-12-25T03:03:00.766Z,1030.29
2018-12-25T03:04:00.742Z,1030.23
2018-12-25T03:05:00.698Z,1030.20
2018-12-25T03:06:00.636Z,1030.18
2018-12-25T03:07:00.601Z,1030.17
2018-12-25T03:08:00.574Z,1030.17
2018-12-25T03:09:00.541Z,1030.13
2018-12-25T03:10:00.487Z,1030.13
2018-12-25T03:11:00.400Z,1030.08
2018-12-25T03:12:00.382Z,1030.10
2018-12-25T03:13:00.314Z,1030.10
2018-12-25T03:14:00.291Z,1030.12
2018-12-25T03:15:00.284Z,1030.11
2018-12-25T03:16:00.176Z,1030.11
2018-12-25T03:17:00.127Z,1030.13
2018-12-25T03:18:00.103Z,1030.09
2018-12-25T03:19:00.054Z,1030.09
2018-12-25T03:20:00.236Z,1030.12
2018-12-25T03:21:00.002Z,1030.13
2018-12-25T03:21:59.908Z,1030.12
2018-12-25T03:22:59.869Z,1030.12
2018-12-25T03:23:59.817Z,1030.11
2018-12-25T03:24:59.777Z,1030.10
2018-12-25T03:25:59.745Z,1030.08
2018-12-25T03:26:59.709Z,1030.07
2018-12-25T03:27:59.659Z,1030.06
2018-12-25T03:28:59.608Z,1030.03
2018-12-25T03:29:59.546Z,1030.03
2018-12-25T03:30:59.537Z,1030.04
2018-12-25T03:31:59.500Z,1030.06
2018-12-25T03:32:59.399Z,1030.07
2018-12-25T03:33:59.379Z,1030.02
2018-12-25T03:34:59.333Z,1030.02
2018-12-25T03:35:59.258Z,1030.06
2018-12-25T03:36:59.364Z,1030.05
2018-12-25T03:37:59.175Z,1030.05
2018-12-25T03:38:59.133Z,1029.98
2018-12-25T03:39:59.080Z,1029.97
2018-12-25T03:40:59.035Z,1029.90
2018-12-25T03:41:59.025Z,1029.94
2018-12-25T03:43:08.311Z,1029.93
2018-12-25T03:43:58.899Z,1029.88
2018-12-25T03:44:58.862Z,1029.83
2018-12-25T03:45:58.806Z,1029.87
2018-12-25T03:46:58.763Z,1029.92
2018-12-25T03:47:58.739Z,1029.92
2018-12-25T03:48:58.663Z,1029.89
2018-12-25T03:49:58.626Z,1029.87
2018-12-25T03:50:58.580Z,1029.87
2018-12-25T03:51:58.529Z,1029.87
2018-12-25T03:52:58.486Z,1029.84
2018-12-25T03:53:58.461Z,1029.87
2018-12-25T03:54:58.396Z,1029.93
2018-12-25T03:55:58.356Z,1029.88
2018-12-25T03:56:58.312Z,1029.89
2018-12-25T03:57:58.286Z,1029.95
2018-12-25T03:58:58.224Z,1029.88
2018-12-25T03:59:58.169Z,1029.97
2018-12-25T04:00:58.121Z,1029.92
2018-12-25T04:01:58.106Z,1029.93
2018-12-25T04:02:58.032Z,1029.90
2018-12-25T04:03:57.992Z,1029.93
2018-12-25T04:04:57.977Z,1029.90
2018-12-25T04:05:57.898Z,1029.93
2018-12-25T04:06:57.848Z,1029.93
2018-12-25T04:07:57.841Z,1029.92
2018-12-25T04:08:57.775Z,1029.93
2018-12-25T04:09:57.737Z,1029.93
2018-12-25T04:10:57.675Z,1029.93
2018-12-25T04:11:57.646Z,1029.90
2018-12-25T04:12:57.626Z,1029.87
2018-12-25T04:13:57.559Z,1029.88
2018-12-25T04:14:57.510Z,1029.88
2018-12-25T04:15:57.484Z,1029.89
2018-12-25T04:16:57.424Z,1029.89
2018-12-25T04:17:57.423Z,1029.88
2018-12-25T04:18:57.337Z,1029.92
2018-12-25T04:19:57.283Z,1029.89
2018-12-25T04:20:57.236Z,1029.90
2018-12-25T04:21:57.197Z,1029.88
2018-12-25T04:22:57.152Z,1029.86
2018-12-25T04:23:57.109Z,1029.85
2018-12-25T04:24:57.045Z,1029.81
2018-12-25T04:25:56.989Z,1029.81
2018-12-25T04:26:56.952Z,1029.79
2018-12-25T04:27:56.912Z,1029.79
2018-12-25T04:28:56.892Z,1029.78
2018-12-25T04:29:56.819Z,1029.76
2018-12-25T04:30:56.773Z,1029.78
2018-12-25T04:31:56.726Z,1029.73
2018-12-25T04:32:56.673Z,1029.76
2018-12-25T04:33:56.660Z,1029.76
2018-12-25T04:34:56.608Z,1029.74
2018-12-25T04:35:56.574Z,1029.73
2018-12-25T04:36:56.539Z,1029.76
2018-12-25T04:37:56.498Z,1029.77
2018-12-25T04:38:56.437Z,1029.72
2018-12-25T04:39:56.410Z,1029.76
2018-12-25T04:40:56.340Z,1029.70
2018-12-25T04:41:56.323Z,1029.76
2018-12-25T04:42:56.246Z,1029.73
2018-12-25T04:43:56.193Z,1029.73
2018-12-25T04:44:56.189Z,1029.78
2018-12-25T04:45:56.129Z,1029.79
2018-12-25T04:46:56.080Z,1029.84
2018-12-25T04:47:56.026Z,1029.81
2018-12-25T04:48:55.986Z,1029.81
2018-12-25T04:49:55.935Z,1029.86
2018-12-25T04:50:55.873Z,1029.83
2018-12-25T04:51:55.844Z,1029.79
2018-12-25T04:52:55.829Z,1029.78
2018-12-25T04:53:55.747Z,1029.80
2018-12-25T04:54:55.710Z,1029.81
2018-12-25T04:55:55.636Z,1029.80
2018-12-25T04:56:55.603Z,1029.86
2018-12-25T04:57:55.554Z,1029.87
2018-12-25T04:58:55.544Z,1029.87
2018-12-25T04:59:55.477Z,1029.86
2018-12-25T05:00:55.416Z,1029.90
2018-12-25T05:01:55.367Z,1029.88
2018-12-25T05:02:55.354Z,1029.86
2018-12-25T05:03:55.270Z,1029.85
2018-12-25T05:04:55.227Z,1029.82
2018-12-25T05:05:55.208Z,1029.79
2018-12-25T05:06:55.152Z,1029.81
2018-12-25T05:07:55.106Z,1029.80
2018-12-25T05:08:55.075Z,1029.81
2018-12-25T05:09:54.998Z,1029.81
2018-12-25T05:10:54.996Z,1029.82
2018-12-25T05:11:54.953Z,1029.84
2018-12-25T05:12:54.889Z,1029.85
2018-12-25T05:13:54.840Z,1029.80
2018-12-25T05:14:54.791Z,1029.78
2018-12-25T05:15:54.741Z,1029.76
2018-12-25T05:16:54.724Z,1029.76
2018-12-25T05:17:54.641Z,1029.75
2018-12-25T05:18:54.593Z,1029.73
2018-12-25T05:19:54.560Z,1029.77
2018-12-25T05:20:54.511Z,1029.74
2018-12-25T05:21:54.508Z,1029.70
2018-12-25T05:22:54.418Z,1029.69
2018-12-25T05:23:54.374Z,1029.69
2018-12-25T05:24:54.321Z,1029.63
2018-12-25T05:25:54.290Z,1029.60
2018-12-25T05:26:54.250Z,1029.60
2018-12-25T05:27:54.228Z,1029.62
2018-12-25T05:28:54.142Z,1029.62
2018-12-25T05:29:54.103Z,1029.63
2018-12-25T05:30:54.053Z,1029.58
2018-12-25T05:31:54.034Z,1029.60
2018-12-25T05:32:53.977Z,1029.60
2018-12-25T05:33:53.946Z,1029.63
2018-12-25T05:34:53.878Z,1029.66
2018-12-25T05:35:53.829Z,1029.67
2018-12-25T05:36:53.785Z,1029.67
2018-12-25T05:37:53.761Z,1029.64
2018-12-25T05:38:53.710Z,1029.66
2018-12-25T05:39:53.659Z,1029.66
2018-12-25T05:40:53.611Z,1029.68
2018-12-25T05:41:53.645Z,1029.69
2018-12-25T05:42:53.526Z,1029.68
2018-12-25T05:43:53.498Z,1029.71
2018-12-25T05:44:53.424Z,1029.68
2018-12-25T05:45:53.394Z,1029.69
2018-12-25T05:46:53.345Z,1029.63
2018-12-25T05:47:53.280Z,1029.62
2018-12-25T05:48:53.262Z,1029.70
2018-12-25T05:49:53.224Z,1029.69
2018-12-25T05:50:53.150Z,1029.71
2018-12-25T05:51:53.129Z,1029.73
2018-12-25T05:52:53.068Z,1029.73
2018-12-25T05:53:53.039Z,1029.74
2018-12-25T05:54:52.977Z,1029.75
2018-12-25T05:55:52.947Z,1029.75
2018-12-25T05:56:52.875Z,1029.79
2018-12-25T05:57:52.836Z,1029.79
2018-12-25T05:58:52.792Z,1029.88
2018-12-25T05:59:52.753Z,1029.83
2018-12-25T06:00:52.725Z,1029.85
2018-12-25T06:01:52.677Z,1029.89
2018-12-25T06:02:52.675Z,1029.91
2018-12-25T06:03:52.570Z,1029.93
2018-12-25T06:04:52.526Z,1029.92
2018-12-25T06:05:52.506Z,1029.95
2018-12-25T06:06:52.434Z,1029.93
2018-12-25T06:07:52.391Z,1029.95
2018-12-25T06:08:52.336Z,1029.99
2018-12-25T06:09:52.329Z,1029.95
2018-12-25T06:10:52.272Z,1029.92
2018-12-25T06:11:52.211Z,1029.91
2018-12-25T06:12:52.161Z,1029.91
2018-12-25T06:13:52.127Z,1029.91
2018-12-25T06:14:52.070Z,1029.93
2018-12-25T06:15:52.034Z,1029.90
2018-12-25T06:16:52.031Z,1029.93
2018-12-25T06:17:51.949Z,1029.97
2018-12-25T06:18:51.901Z,1029.96
2018-12-25T06:19:51.849Z,1029.96
2018-12-25T06:20:55.153Z,1029.95
2018-12-25T06:21:51.753Z,1029.94
2018-12-25T06:22:51.757Z,1029.94
2018-12-25T06:23:51.671Z,1029.93
2018-12-25T06:24:51.630Z,1029.96
2018-12-25T06:25:51.588Z,1029.95
2018-12-25T06:26:51.547Z,1029.91
2018-12-25T06:27:51.481Z,1029.91
2018-12-25T06:28:51.466Z,1029.88
2018-12-25T06:29:51.400Z,1029.92
2018-12-25T06:30:51.361Z,1029.91
2018-12-25T06:31:51.302Z,1029.97
2018-12-25T06:32:51.268Z,1029.96
2018-12-25T06:33:51.217Z,1029.93
2018-12-25T06:34:51.189Z,1029.95
2018-12-25T06:35:51.138Z,1029.95
2018-12-25T06:36:51.081Z,1029.92
2018-12-25T06:37:51.041Z,1029.92
2018-12-25T06:38:50.993Z,1029.90
2018-12-25T06:39:50.965Z,1029.91
2018-12-25T06:40:50.897Z,1029.91
2018-12-25T06:41:50.885Z,1029.91
2018-12-25T06:42:50.819Z,1029.93
2018-12-25T06:43:50.771Z,1029.92
2018-12-25T06:44:50.727Z,1029.91
2018-12-25T06:45:50.674Z,1029.93
2018-12-25T06:46:50.637Z,1029.89
2018-12-25T06:47:50.621Z,1029.92
2018-12-25T06:48:50.561Z,1029.91
2018-12-25T06:49:50.505Z,1029.84
2018-12-25T06:50:50.463Z,1029.82
2018-12-25T06:51:50.413Z,1029.81
2018-12-25T06:52:50.362Z,1029.83
2018-12-25T06:53:50.352Z,1029.85
2018-12-25T06:54:50.286Z,1029.81
2018-12-25T06:55:50.255Z,1029.80
2018-12-25T06:56:50.215Z,1029.80
2018-12-25T06:57:50.157Z,1029.76
2018-12-25T06:58:50.095Z,1029.78
2018-12-25T06:59:50.048Z,1029.77
2018-12-25T07:00:50.035Z,1029.76
2018-12-25T07:01:49.962Z,1029.76
2018-12-25T07:02:49.922Z,1029.78
2018-12-25T07:03:49.872Z,1029.78
2018-12-25T07:04:49.829Z,1029.75
2018-12-25T07:05:49.790Z,1029.73
2018-12-25T07:06:50.644Z,1029.74
2018-12-25T07:07:49.688Z,1029.72
2018-12-25T07:08:49.675Z,1029.74
2018-12-25T07:09:49.612Z,1029.76
2018-12-25T07:10:49.570Z,1029.71
2018-12-25T07:11:49.536Z,1029.70
2018-12-25T07:12:49.488Z,1029.72
2018-12-25T07:13:49.437Z,1029.71
2018-12-25T07:14:49.381Z,1029.69
2018-12-25T07:15:49.343Z,1029.69
2018-12-25T07:16:49.292Z,1029.68
2018-12-25T07:17:49.242Z,1029.68
2018-12-25T07:18:49.233Z,1029.67
2018-12-25T07:19:49.157Z,1029.71
2018-12-25T07:20:49.109Z,1029.68
2018-12-25T07:21:49.068Z,1029.69
2018-12-25T07:22:49.023Z,1029.68
2018-12-25T07:23:49.012Z,1029.69
2018-12-25T07:24:48.950Z,1029.65
2018-12-25T07:25:48.899Z,1029.63
2018-12-25T07:26:48.830Z,1029.66
2018-12-25T07:27:48.792Z,1029.70
2018-12-25T07:28:48.747Z,1029.69
2018-12-25T07:29:50.329Z,1029.70
2018-12-25T07:30:48.665Z,1029.70
2018-12-25T07:31:48.612Z,1029.69
2018-12-25T07:32:48.560Z,1029.66
2018-12-25T07:33:48.531Z,1029.67
2018-12-25T07:34:48.502Z,1029.60
2018-12-25T07:35:48.458Z,1029.61
2018-12-25T07:36:48.379Z,1029.61
2018-12-25T07:37:48.335Z,1029.68
2018-12-25T07:38:48.302Z,1029.66
2018-12-25T07:39:48.263Z,1029.73
2018-12-25T07:40:48.241Z,1029.67
2018-12-25T07:41:48.158Z,1029.73
2018-12-25T07:42:48.127Z,1029.70
2018-12-25T07:43:48.075Z,1029.70
2018-12-25T07:44:48.018Z,1029.70
2018-12-25T07:45:48.002Z,1029.70
2018-12-25T07:46:47.943Z,1029.69
2018-12-25T07:47:47.906Z,1029.73
2018-12-25T07:48:47.847Z,1029.73
2018-12-25T07:49:47.806Z,1029.71
2018-12-25T07:50:47.788Z,1029.71
2018-12-25T07:51:47.722Z,1029.69
2018-12-25T07:52:47.669Z,1029.72
2018-12-25T07:53:47.620Z,1029.75
2018-12-25T07:54:47.572Z,1029.76
2018-12-25T07:55:47.553Z,1029.76
2018-12-25T07:56:47.484Z,1029.76
2018-12-25T07:57:47.523Z,1029.72
2018-12-25T07:58:47.400Z,1029.75
2018-12-25T07:59:47.363Z,1029.73
2018-12-25T08:00:47.330Z,1029.71
2018-12-25T08:01:47.277Z,1029.69
2018-12-25T08:02:47.222Z,1029.74
2018-12-25T08:03:47.240Z,1029.72
2018-12-25T08:04:47.134Z,1029.75
2018-12-25T08:05:55.984Z,1029.76
2018-12-25T08:06:56.412Z,1029.75
2018-12-25T08:07:46.989Z,1029.73
2018-12-25T08:08:46.952Z,1029.72
2018-12-25T08:09:46.927Z,1029.78
2018-12-25T08:10:46.858Z,1029.76
2018-12-25T08:11:46.841Z,1029.78
2018-12-25T08:12:46.760Z,1029.82
2018-12-25T08:13:46.707Z,1029.85
2018-12-25T08:14:46.689Z,1029.82
2018-12-25T08:15:46.625Z,1029.81
2018-12-25T08:16:46.665Z,1029.80
2018-12-25T08:17:46.558Z,1029.81
2018-12-25T08:18:46.485Z,1029.80
2018-12-25T08:19:46.446Z,1029.76
2018-12-25T08:20:46.400Z,1029.81
2018-12-25T08:21:46.367Z,1029.85
2018-12-25T08:22:46.352Z,1029.83
2018-12-25T08:23:46.267Z,1029.82
2018-12-25T08:24:46.222Z,1029.83
2018-12-25T08:25:46.182Z,1029.79
2018-12-25T08:26:46.140Z,1029.77
2018-12-25T08:27:46.126Z,1029.80
2018-12-25T08:28:46.071Z,1029.81
2018-12-25T08:29:45.996Z,1029.81
2018-12-25T08:30:45.956Z,1029.80
2018-12-25T08:31:45.903Z,1029.83
2018-12-25T08:32:45.861Z,1029.84
2018-12-25T08:33:45.849Z,1029.82
2018-12-25T08:34:45.774Z,1029.84
2018-12-25T08:35:45.743Z,1029.83
2018-12-25T08:36:45.687Z,1029.83
2018-12-25T08:37:45.648Z,1029.86
2018-12-25T08:38:45.597Z,1029.92
2018-12-25T08:39:45.589Z,1029.95
2018-12-25T08:40:45.521Z,1029.98
2018-12-25T08:41:45.468Z,1030.02
2018-12-25T08:42:45.423Z,1029.98
2018-12-25T08:43:45.366Z,1029.97
2018-12-25T08:44:45.322Z,1029.98
2018-12-25T08:45:45.304Z,1029.98
2018-12-25T08:46:45.231Z,1029.99
2018-12-25T08:47:45.203Z,1029.99
2018-12-25T08:48:45.162Z,1030.00
2018-12-25T08:49:45.132Z,1029.98
2018-12-25T08:50:45.069Z,1030.00
2018-12-25T08:51:45.063Z,1030.00
2018-12-25T08:52:44.984Z,1030.04
2018-12-25T08:53:44.959Z,1030.03
2018-12-25T08:54:44.890Z,1030.04
2018-12-25T08:55:44.836Z,1030.08
2018-12-25T08:56:44.817Z,1030.05
2018-12-25T08:57:44.779Z,1030.05
2018-12-25T08:58:44.708Z,1030.05
2018-12-25T08:59:44.663Z,1030.05
2018-12-25T09:00:44.632Z,1030.04
2018-12-25T09:01:44.591Z,1030.02
2018-12-25T09:02:44.535Z,1030.04
2018-12-25T09:03:44.505Z,1030.03
2018-12-25T09:04:44.450Z,1030.06
2018-12-25T09:05:44.406Z,1030.06
2018-12-25T09:06:44.349Z,1030.08
2018-12-25T09:07:44.333Z,1030.12
2018-12-25T09:08:44.269Z,1030.08
2018-12-25T09:09:44.266Z,1030.05
2018-12-25T09:10:44.180Z,1030.13
2018-12-25T09:11:44.166Z,1030.10
2018-12-25T09:12:44.095Z,1030.11
2018-12-25T09:13:44.063Z,1030.16
2018-12-25T09:14:44.003Z,1030.15
2018-12-25T09:15:44.010Z,1030.14
2018-12-25T09:16:43.922Z,1030.11
2018-12-25T09:17:43.876Z,1030.06
2018-12-25T09:18:43.837Z,1030.05
2018-12-25T09:19:43.797Z,1030.04
2018-12-25T09:20:43.778Z,1030.05
2018-12-25T09:21:46.420Z,1030.04
2018-12-25T09:22:43.657Z,1030.08
2018-12-25T09:23:43.613Z,1030.07
2018-12-25T09:24:43.572Z,1030.08
2018-12-25T09:25:43.554Z,1030.11
2018-12-25T09:26:43.502Z,1030.15
2018-12-25T09:27:43.433Z,1030.17
2018-12-25T09:28:43.385Z,1030.18
2018-12-25T09:29:43.361Z,1030.13
2018-12-25T09:30:43.319Z,1030.15
2018-12-25T09:31:43.304Z,1030.20
2018-12-25T09:32:43.226Z,1030.18
2018-12-25T09:33:43.183Z,1030.19
2018-12-25T09:34:43.127Z,1030.19
2018-12-25T09:35:43.106Z,1030.26
2018-12-25T09:36:43.180Z,1030.28
2018-12-25T09:37:43.027Z,1030.32
2018-12-25T09:38:42.965Z,1030.25
2018-12-25T09:39:42.954Z,1030.23
2018-12-25T09:40:42.863Z,1030.22
2018-12-25T09:41:42.834Z,1030.22
2018-12-25T09:42:42.796Z,1030.24
2018-12-25T09:43:42.727Z,1030.20
2018-12-25T09:44:42.715Z,1030.22
2018-12-25T09:45:42.645Z,1030.21
2018-12-25T09:46:42.638Z,1030.23
2018-12-25T09:47:42.555Z,1030.24
2018-12-25T09:48:42.553Z,1030.26
2018-12-25T09:49:42.477Z,1030.23
2018-12-25T09:50:42.450Z,1030.21
2018-12-25T09:51:42.402Z,1030.25
2018-12-25T09:52:42.341Z,1030.25
2018-12-25T09:53:42.350Z,1030.19
2018-12-25T09:54:42.297Z,1030.19
2018-12-25T09:55:42.236Z,1030.18
2018-12-25T09:56:42.323Z,1030.18
2018-12-25T09:57:42.171Z,1030.18
2018-12-25T09:58:42.087Z,1030.21
2018-12-25T09:59:42.037Z,1030.20
2018-12-25T10:00:42.071Z,1030.19
2018-12-25T10:01:42.070Z,1030.20
2018-12-25T10:02:42.190Z,1030.19
2018-12-25T10:03:42.024Z,1030.06
2018-12-25T10:04:41.905Z,1030.11
2018-12-25T10:05:41.779Z,1030.17
2018-12-25T10:06:41.737Z,1030.15
2018-12-25T10:07:41.819Z,1030.12
2018-12-25T10:08:41.658Z,1030.08
2018-12-25T10:09:41.606Z,1030.09
2018-12-25T10:10:41.563Z,1030.11
2018-12-25T10:11:44.558Z,1030.13
2018-12-25T10:12:41.463Z,1030.10
2018-12-25T10:13:41.494Z,1030.10
2018-12-25T10:14:41.392Z,1030.08
2018-12-25T10:15:41.361Z,1030.03
2018-12-25T10:16:41.309Z,1029.99
2018-12-25T10:17:41.254Z,1029.97
2018-12-25T10:18:41.290Z,1029.94
2018-12-25T10:19:41.235Z,1029.90
2018-12-25T10:20:41.125Z,1029.90
2018-12-25T10:21:41.074Z,1029.94
2018-12-25T10:22:41.028Z,1029.91
2018-12-25T10:23:41.019Z,1029.89
2018-12-25T10:24:40.974Z,1029.89
2018-12-25T10:25:40.904Z,1029.93
2018-12-25T10:26:40.865Z,1029.95
2018-12-25T10:27:40.829Z,1029.97
2018-12-25T10:28:40.781Z,1029.97
2018-12-25T10:29:40.764Z,1029.95
2018-12-25T10:30:40.729Z,1029.99
2018-12-25T10:31:42.492Z,1029.95
2018-12-25T10:32:40.862Z,1029.99
2018-12-25T10:33:41.336Z,1030.01
2018-12-25T10:34:40.936Z,1030.01
2018-12-25T10:35:40.642Z,1030.01
2018-12-25T10:36:42.363Z,1030.01
2018-12-25T10:37:40.576Z,1029.99
2018-12-25T10:38:40.424Z,1029.99
2018-12-25T10:39:40.387Z,1029.95
2018-12-25T10:40:40.299Z,1029.96
2018-12-25T10:41:40.261Z,1029.96
2018-12-25T10:42:40.255Z,1029.94
2018-12-25T10:43:40.157Z,1029.94
2018-12-25T10:44:40.131Z,1029.98
2018-12-25T10:45:40.265Z,1030.06
2018-12-25T10:46:40.051Z,1029.97
2018-12-25T10:47:40.026Z,1029.97
2018-12-25T10:48:39.958Z,1029.99
2018-12-25T10:49:39.911Z,1029.97
2018-12-25T10:50:41.816Z,1029.92
2018-12-25T10:51:39.823Z,1029.92
2018-12-25T10:52:39.788Z,1029.93
2018-12-25T10:53:39.768Z,1029.90
2018-12-25T10:54:39.701Z,1029.93
2018-12-25T10:55:39.653Z,1029.92
2018-12-25T10:56:39.586Z,1029.91
2018-12-25T10:57:39.558Z,1029.89
2018-12-25T10:58:39.520Z,1029.87
2018-12-25T10:59:39.462Z,1029.91
2018-12-25T11:00:39.454Z,1029.92
2018-12-25T11:01:39.396Z,1029.96
2018-12-25T11:02:39.343Z,1029.95
2018-12-25T11:03:39.300Z,1030.00
2018-12-25T11:04:39.272Z,1030.02
2018-12-25T11:05:48.179Z,1030.04
2018-12-25T11:06:39.160Z,1030.01
2018-12-25T11:07:39.123Z,1029.98
2018-12-25T11:08:39.092Z,1030.01
2018-12-25T11:09:39.061Z,1029.99
2018-12-25T11:10:39.002Z,1029.97
2018-12-25T11:11:38.980Z,1029.98
2018-12-25T11:12:38.922Z,1030.01
2018-12-25T11:13:38.883Z,1030.03
2018-12-25T11:14:38.870Z,1030.03
2018-12-25T11:15:38.830Z,1030.04
2018-12-25T11:16:38.750Z,1030.00
2018-12-25T11:17:38.787Z,1030.01
2018-12-25T11:18:38.673Z,1030.03
2018-12-25T11:19:38.617Z,1029.99
2018-12-25T11:20:38.582Z,1029.98
2018-12-25T11:21:38.541Z,1030.00
2018-12-25T11:22:38.518Z,1029.97
2018-12-25T11:23:38.459Z,1029.99
2018-12-25T11:24:38.416Z,1030.01
2018-12-25T11:25:38.351Z,1029.97
2018-12-25T11:26:38.347Z,1029.98
2018-12-25T11:27:38.312Z,1029.97
2018-12-25T11:28:39.971Z,1030.01
2018-12-25T11:29:38.211Z,1030.00
2018-12-25T11:30:38.161Z,1029.97
2018-12-25T11:31:38.136Z,1029.93
2018-12-25T11:32:38.067Z,1029.96
2018-12-25T11:33:38.019Z,1029.93
2018-12-25T11:34:38.015Z,1029.94
2018-12-25T11:35:37.939Z,1029.90
2018-12-25T11:36:38.027Z,1029.94
2018-12-25T11:37:37.862Z,1029.89
2018-12-25T11:38:37.811Z,1029.90
2018-12-25T11:39:37.779Z,1029.89
2018-12-25T11:40:37.842Z,1029.85
2018-12-25T11:41:37.710Z,1029.90
2018-12-25T11:42:37.670Z,1029.84
2018-12-25T11:43:37.587Z,1029.87
2018-12-25T11:44:37.555Z,1029.86
2018-12-25T11:45:37.521Z,1029.88
2018-12-25T11:46:37.472Z,1029.86
2018-12-25T11:47:37.454Z,1029.84
2018-12-25T11:48:37.464Z,1029.85
2018-12-25T11:49:37.378Z,1029.87
2018-12-25T11:50:37.301Z,1029.86
2018-12-25T11:51:37.244Z,1029.87
2018-12-25T11:52:37.222Z,1029.85
2018-12-25T11:53:37.192Z,1029.86
2018-12-25T11:54:37.152Z,1029.81
2018-12-25T11:55:37.090Z,1029.81
2018-12-25T11:56:37.038Z,1029.81
2018-12-25T11:57:37.020Z,1029.77
2018-12-25T11:58:36.942Z,1029.76
2018-12-25T11:59:36.905Z,1029.77
2018-12-25T12:00:36.876Z,1029.71
2018-12-25T12:01:36.867Z,1029.67
2018-12-25T12:02:36.785Z,1029.69
2018-12-25T12:03:36.773Z,1029.70
2018-12-25T12:04:36.688Z,1029.71